Bremerton, WA (98337)

7:54 AM PST on November 28, 2014 (GMT -0800)
Bloomington Ave | Change Station
CLOSE
Current Station
Personal Weather Station
Location: Bremerton, WA
Elevation: 75 ft
Nearby Weather Stations
Active Advisory: Special Statement Active Notice: Record Report

Elev 75 ft 47.58 °N, 122.65 °W | Updated 1 minute ago

Rain
Rain
52.4 °F
Feels Like 52.4 °F
N
1.0
Wind Variable Wind from ESE
Gusts 4.0 mph

Today
High -- | Low -- °F
--% Chance of Precip.
Yesterday
High -- | Low -- °F
Precip. -- in
7:34 AM 4:22 PM
Waxing Crescent, 41% visible
Pressure 29.53 in
Visibility 10.0 miles
Clouds Overcast 700 ft
Dew Point 51 °F
Humidity 95%
Rainfall 0.28 in
Snow Depth Not available.
UV 0 out of 12
Pollen .10 out of 12
Air Quality Not available.
Flu Activity Not available.
METAR KPWT 281535Z AUTO 18012G19KT 10SM OVC007 11/10 A2953 RMK AO1 P0010

More Conditions Fewer Conditions

Pressure 29.53 in
Visibility 10.0 miles
Clouds Overcast 700 ft
Dew Point 51 °F
Humidity 95%
Rainfall 0.28 in
Snow Depth Not available.
UV 0 out of 12
Pollen .10 out of 12
Air Quality Not available.
Flu Activity Not available.
METAR KPWT 281535Z AUTO 18012G19KT 10SM OVC007 11/10 A2953 RMK AO1 P0010

More Conditions Fewer Conditions

10-Day Weather Forecast

Almanac

Astronomy

Nov. 28, 2014 Rise Set
Actual Time
Civil Twilight
Nautical Twilight
Astronomical Twilight
Moon
Length of Visible Light
Length of Day
Tomorrow will be .
, % of the Moon is Illuminated

Today's Extremes

State Highs State Lows

Community

WunderPhotos

Upload Photos

1,774,234 photos uploaded!

WunderBlogs® & News

Nearby

Air Quality

  Air Quality AQ Index Pollutant
Not available.

Snow Depth

Station Depth Elevation

Earthquake Activity

City Distance Mag. Time & Date
Minimum magnitude displayed is 2.5.

Coastal Water Temperatures

Place Temperature

Nearby Weather Stations